Main page
METAR-TAF:

METAR-TAF

Airports :

Albacete Airport

Albacete, Spain

latitude: 38-57N, longitude: 001-51W, elevation: 702 m

Current weather observation

The report was made 36 minutes ago, at 23:00 UTC
Wind 10 kt from the West/Southwest
Temperature 25°C
Humidity 19%
Pressure 1014 hPa
Visibility 10 km or more
no clouds below 1500 m and no cumulonimbus

METAR: LEAB 302300Z 25010KT CAVOK 25/00 Q1014 NOSIG

Time: 01:36 (23:36 UTC)

Forecast

The report was made 6 hours and 36 minutes ago, at 17:00 UTC
Forecast valid from 30 at 18 UTC to 31 at 18 UTC
Wind 10 kt from the West
Visibility 10 km or more
no clouds below 1500 m and no cumulonimbus
Probability 40% :
Temporary
from 31 at 15 UTC to 31 at 18 UTC
Wind 15 kt from the West with gusts up to 30 kt

TAF: LEAB 301700Z 3018/3118 26010KT CAVOK TX36/3018Z TN18/3105Z PROB40 TEMPO 3115/3118 28015G30KT

Weather observations and forecasts of more than 4000 airports (METAR and TAF reports).

The available stations are represented by yellow and red dots on the map.

Hover mouse over dot to see the name of the station.

Then click to see weather observations and forecasts.

To change the map : click on the green buttons with a black cross to zoom in, on the green button with a dash to zoom out, or on the green arrows for adjacent maps.


METAR-TAF: